Shirahamamaru — JG4872 — position and weather

sailwx.info

Track history (hours):
 
Tides and Currents Weather Stations Pressure Air Temp Water Temp Dewpoint Dewpoint Depression Visibility Wind Speed Wind Dir Waves Ship Positions

Shirahamamaru

Last reported at 2015-Feb-28 11:07 UTC. Time now 2015-Feb-28 19:19 UTC.
Position N 35°13' E 139°43'.

Length 79 m; draft 3.2 m.

Type: Passenger vessel. MMSI: 431000239.

Date/timePositionNaut miles runAvg speedWind from/ knotsBaromVisibWave heightAir tempDewpointWater temp
2015-Feb-28 11:07N 35°13' E 139°43'610.1
2015-Feb-28 10:33N 35°10' E 139°49'3 3.5
2015-Feb-28 09:33N 35°13' E 139°46'2 1.8
2015-Feb-28 08:33N 35°11' E 139°47'3 2.5
2015-Feb-28 07:33N 35°13' E 139°45'2 2.2
2015-Feb-28 06:33N 35°11' E 139°47'2 2.3
2015-Feb-28 05:33N 35°13' E 139°44'2 1.7
2015-Feb-28 04:33N 35°12' E 139°46'1 0.8
2015-Feb-28 03:33N 35°12' E 139°45'2 1.6
2015-Feb-28 02:33N 35°11' E 139°47'2 2.4
2015-Feb-28 01:33N 35°13' E 139°45'2 2.2
2015-Feb-28 00:33N 35°12' E 139°47'2 2.1
2015-Feb-27 23:33N 35°13' E 139°45'2 1.5
2015-Feb-27 22:33N 35°12' E 139°46'1 1.4
2015-Feb-27 21:33N 35°13' E 139°45'2 0.2
2015-Feb-27 11:11N 35°13' E 139°43'6 9.4
2015-Feb-27 10:33N 35°10' E 139°49'3 3.2
2015-Feb-27 09:33N 35°12' E 139°46'1 1.1
2015-Feb-27 08:33N 35°12' E 139°47'2 1.9
2015-Feb-27 07:33N 35°12' E 139°45'2 2.0
2015-Feb-27 06:33N 35°11' E 139°47'2 2.1
2015-Feb-27 05:33N 35°10' E 139°49'6 5.9
2015-Feb-27 04:33N 35°13' E 139°43'0 0.3
2015-Feb-27 03:33N 35°13' E 139°43'6 5.7
2015-Feb-27 02:33N 35°10' E 139°49'5 4.7
2015-Feb-27 01:33N 35°13' E 139°44'3 2.7
2015-Feb-27 00:33N 35°11' E 139°47'2 2.3
2015-Feb-26 23:33N 35°13' E 139°45'1 1.5
2015-Feb-26 22:33N 35°11' E 139°46'2 1.6
2015-Feb-26 21:33N 35°13' E 139°45'1 1.5
2015-Feb-26 20:33N 35°13' E 139°43'0 0.0
2015-Feb-26 11:10N 35°13' E 139°43'6 9.2
2015-Feb-26 10:32N 35°10' E 139°49'3 3.5
2015-Feb-26 09:33N 35°12' E 139°46'1 1.2
2015-Feb-26 08:33N 35°11' E 139°47'2 2.4
2015-Feb-26 07:33N 35°13' E 139°45'2 2.5
2015-Feb-26 06:33N 35°11' E 139°47'2 2.1
2015-Feb-26 05:33N 35°10' E 139°49'6 5.9
2015-Feb-26 04:33N 35°13' E 139°43'0 0.3
2015-Feb-26 03:33N 35°13' E 139°43'6 5.6
2015-Feb-26 02:33N 35°10' E 139°49'4 4.5
2015-Feb-26 01:33N 35°13' E 139°45'2 2.4
2015-Feb-26 00:33N 35°12' E 139°47'2 2.3
2015-Feb-25 23:33N 35°13' E 139°45'1 1.3
2015-Feb-25 22:33N 35°12' E 139°46'1 1.5
2015-Feb-25 21:33N 35°13' E 139°45'1 1.4
2015-Feb-25 20:33N 35°13' E 139°43'0 0.0
2015-Feb-25 11:07N 35°13' E 139°43'610.0
2015-Feb-25 10:33N 35°10' E 139°49'3 3.3
2015-Feb-25 09:33N 35°12' E 139°45'1 1.4
2015-Feb-25 08:33N 35°11' E 139°47'2 2.4
2015-Feb-25 07:33N 35°13' E 139°45'2 2.3
2015-Feb-25 06:33N 35°12' E 139°47'2 2.2
2015-Feb-25 05:33N 35°10' E 139°49'6 5.9
2015-Feb-25 04:33N 35°13' E 139°43'0 0.2
2015-Feb-25 03:34N 35°13' E 139°43'6 5.9
2015-Feb-25 02:33N 35°10' E 139°49'4 4.4
2015-Feb-25 01:33N 35°13' E 139°45'2 2.5
2015-Feb-25 00:33N 35°11' E 139°47'2 2.3
2015-Feb-24 23:33N 35°13' E 139°45'2 1.9
2015-Feb-24 22:33N 35°11' E 139°46'2 1.9
2015-Feb-24 21:33N 35°13' E 139°45'2 0.2
2015-Feb-24 11:15N 35°13' E 139°43'6 8.1
2015-Feb-24 10:33N 35°10' E 139°49'4 3.6
2015-Feb-24 09:33N 35°13' E 139°46'2 1.6
2015-Feb-24 08:33N 35°12' E 139°47'3 2.6
2015-Feb-24 07:32N 35°13' E 139°44'3 3.0
2015-Feb-24 06:33N 35°11' E 139°47'2 1.9
2015-Feb-24 05:33N 35°10' E 139°49'6 5.9
2015-Feb-24 04:33N 35°13' E 139°43'1 0.9
2015-Feb-24 03:31N 35°13' E 139°44'5 5.3
2015-Feb-24 02:33N 35°10' E 139°49'4 4.4
2015-Feb-24 01:32N 35°13' E 139°44'3 2.8
2015-Feb-24 00:31N 35°11' E 139°47'3 2.6
2015-Feb-23 23:33N 35°13' E 139°45'1 1.1
2015-Feb-23 22:33N 35°12' E 139°46'1 1.4
2015-Feb-23 21:32N 35°13' E 139°44'1 0.1
2015-Feb-23 11:08N 35°13' E 139°43'6 9.6
2015-Feb-23 10:31N 35°10' E 139°49'3 3.3
2015-Feb-23 09:33N 35°12' E 139°46'1 1.2
2015-Feb-23 08:32N 35°12' E 139°47'4 3.4
2015-Feb-23 07:26N 35°13' E 139°43'4 4.2
2015-Feb-23 06:33N 35°12' E 139°47'2 2.1
2015-Feb-23 05:32N 35°10' E 139°49'6 6.0
2015-Feb-23 04:33N 35°13' E 139°43'0 0.3
2015-Feb-23 03:33N 35°13' E 139°43'6 5.7
2015-Feb-23 02:33N 35°10' E 139°49'5 4.6
2015-Feb-23 01:31N 35°13' E 139°44'3 2.8
2015-Feb-23 00:33N 35°11' E 139°47'3 2.7
2015-Feb-22 23:32N 35°13' E 139°44'1 1.2
2015-Feb-22 22:33N 35°13' E 139°43'0 0.0
2015-Feb-22 21:33N 35°13' E 139°43'0 0.0
2015-Feb-22 20:33N 35°13' E 139°43'0 0.0
2015-Feb-22 11:07N 35°13' E 139°43'610.0
2015-Feb-22 10:32N 35°10' E 139°49'4 3.6
2015-Feb-22 09:33N 35°13' E 139°46'1 1.4
2015-Feb-22 08:33N 35°11' E 139°47'3 2.6
2015-Feb-22 07:30N 35°13' E 139°44'3 3.0
2015-Feb-22 06:33N 35°11' E 139°47'3 2.5
2015-Feb-22 05:33N 35°13' E 139°44'2 1.7
2015-Feb-22 04:34N 35°12' E 139°46'1 0.8
2015-Feb-22 03:33N 35°12' E 139°45'2 1.8
2015-Feb-22 02:33N 35°11' E 139°47'3 2.8
2015-Feb-22 01:32N 35°13' E 139°44'3 2.9
2015-Feb-22 00:33N 35°11' E 139°47'3 2.8
2015-Feb-21 23:33N 35°13' E 139°44'2 1.5
2015-Feb-21 22:33N 35°12' E 139°46'2 1.6
2015-Feb-21 21:31N 35°13' E 139°44'1 1.1
2015-Feb-21 20:33N 35°13' E 139°43'0 0.0
2015-Feb-21 11:12N 35°13' E 139°43'6 9.0
2015-Feb-21 10:33N 35°10' E 139°49'4 3.6
2015-Feb-21 09:31N 35°12' E 139°45'2 2.1
2015-Feb-21 08:33N 35°11' E 139°47'3 2.9
2015-Feb-21 07:32N 35°13' E 139°44'3 2.9
2015-Feb-21 06:32N 35°11' E 139°47'3 2.9
2015-Feb-21 05:31N 35°13' E 139°44'2 1.9
2015-Feb-21 04:33N 35°12' E 139°46'0 0.5
2015-Feb-21 03:33N 35°12' E 139°46'1 1.4
2015-Feb-21 02:33N 35°11' E 139°47'3 2.5
2015-Feb-21 01:33N 35°13' E 139°44'3 2.6
2015-Feb-21 00:33N 35°11' E 139°47'2 2.3
2015-Feb-20 23:33N 35°13' E 139°45'1 1.5
2015-Feb-20 22:33N 35°12' E 139°46'2 1.6
2015-Feb-20 21:33N 35°13' E 139°45'1 0.1
2015-Feb-20 11:08N 35°13' E 139°43'6 9.8
2015-Feb-20 10:33N 35°10' E 139°49'3 2.8
2015-Feb-20 09:33N 35°12' E 139°46'1 0.9
2015-Feb-20 08:33N 35°12' E 139°47'2 2.3
2015-Feb-20 07:33N 35°13' E 139°45'2 2.3
2015-Feb-20 06:33N 35°12' E 139°47'2 2.0
2015-Feb-20 05:33N 35°10' E 139°49'6 5.9
2015-Feb-20 04:33N 35°13' E 139°43'0 0.3
2015-Feb-20 03:33N 35°13' E 139°43'6 5.8
2015-Feb-20 02:33N 35°10' E 139°49'4 4.2
2015-Feb-20 01:33N 35°13' E 139°45'2 2.0
2015-Feb-20 00:33N 35°12' E 139°47'2 2.1
2015-Feb-19 23:33N 35°13' E 139°45'1 1.1
2015-Feb-19 22:33N 35°12' E 139°46'1 1.0
2015-Feb-19 21:33N 35°12' E 139°45'2 0.2
2015-Feb-19 11:09N 35°13' E 139°43'6 9.6
2015-Feb-19 10:33N 35°10' E 139°49'3 3.3
2015-Feb-19 09:33N 35°13' E 139°46'1 1.5
2015-Feb-19 08:33N 35°12' E 139°47'2 2.0
2015-Feb-19 07:33N 35°12' E 139°45'2 1.7
2015-Feb-19 06:33N 35°12' E 139°47'2 2.3
2015-Feb-19 05:33N 35°10' E 139°49'6 5.9
2015-Feb-19 04:33N 35°13' E 139°43'0 0.3
2015-Feb-19 03:33N 35°13' E 139°43'6 5.8
2015-Feb-19 02:33N 35°10' E 139°49'5 4.5
2015-Feb-19 01:33N 35°13' E 139°45'3 2.6
2015-Feb-19 00:32N 35°11' E 139°47'3 2.7
2015-Feb-18 23:33N 35°13' E 139°45'1 1.5
2015-Feb-18 22:33N 35°12' E 139°46'1 1.4
2015-Feb-18 21:33N 35°13' E 139°45'1 1.4
2015-Feb-18 20:33N 35°13' E 139°43'0 0.0
2015-Feb-18 11:09N 35°13' E 139°43'  
Track history (hours):
 
Tides and Currents Weather Stations Pressure Air Temp Water Temp Dewpoint Dewpoint Depression Visibility Wind Speed Wind Dir Waves Ship Positions

Shirahamamaru

Last reported at 2015-Feb-28 11:07 UTC. Time now 2015-Feb-28 19:19 UTC.
Position N 35°13' E 139°43'.

Length 79 m; draft 3.2 m.

Type: Passenger vessel. MMSI: 431000239.

Date/timePositionNaut miles runAvg speedWind from/ knotsBaromVisibWave heightAir tempDewpointWater temp
2015-Feb-28 11:07N 35°13' E 139°43'610.1
2015-Feb-28 10:33N 35°10' E 139°49'3 3.5
2015-Feb-28 09:33N 35°13' E 139°46'2 1.8
2015-Feb-28 08:33N 35°11' E 139°47'3 2.5
2015-Feb-28 07:33N 35°13' E 139°45'2 2.2
2015-Feb-28 06:33N 35°11' E 139°47'2 2.3
2015-Feb-28 05:33N 35°13' E 139°44'2 1.7
2015-Feb-28 04:33N 35°12' E 139°46'1 0.8
2015-Feb-28 03:33N 35°12' E 139°45'2 1.6
2015-Feb-28 02:33N 35°11' E 139°47'2 2.4
2015-Feb-28 01:33N 35°13' E 139°45'2 2.2
2015-Feb-28 00:33N 35°12' E 139°47'2 2.1
2015-Feb-27 23:33N 35°13' E 139°45'2 1.5
2015-Feb-27 22:33N 35°12' E 139°46'1 1.4
2015-Feb-27 21:33N 35°13' E 139°45'2 0.2
2015-Feb-27 11:11N 35°13' E 139°43'6 9.4
2015-Feb-27 10:33N 35°10' E 139°49'3 3.2
2015-Feb-27 09:33N 35°12' E 139°46'1 1.1
2015-Feb-27 08:33N 35°12' E 139°47'2 1.9
2015-Feb-27 07:33N 35°12' E 139°45'2 2.0
2015-Feb-27 06:33N 35°11' E 139°47'2 2.1
2015-Feb-27 05:33N 35°10' E 139°49'6 5.9
2015-Feb-27 04:33N 35°13' E 139°43'0 0.3
2015-Feb-27 03:33N 35°13' E 139°43'6 5.7
2015-Feb-27 02:33N 35°10' E 139°49'5 4.7
2015-Feb-27 01:33N 35°13' E 139°44'3 2.7
2015-Feb-27 00:33N 35°11' E 139°47'2 2.3
2015-Feb-26 23:33N 35°13' E 139°45'1 1.5
2015-Feb-26 22:33N 35°11' E 139°46'2 1.6
2015-Feb-26 21:33N 35°13' E 139°45'1 1.5
2015-Feb-26 20:33N 35°13' E 139°43'0 0.0
2015-Feb-26 11:10N 35°13' E 139°43'6 9.2
2015-Feb-26 10:32N 35°10' E 139°49'3 3.5
2015-Feb-26 09:33N 35°12' E 139°46'1 1.2
2015-Feb-26 08:33N 35°11' E 139°47'2 2.4
2015-Feb-26 07:33N 35°13' E 139°45'2 2.5
2015-Feb-26 06:33N 35°11' E 139°47'2 2.1
2015-Feb-26 05:33N 35°10' E 139°49'6 5.9
2015-Feb-26 04:33N 35°13' E 139°43'0 0.3
2015-Feb-26 03:33N 35°13' E 139°43'6 5.6
2015-Feb-26 02:33N 35°10' E 139°49'4 4.5
2015-Feb-26 01:33N 35°13' E 139°45'2 2.4
2015-Feb-26 00:33N 35°12' E 139°47'2 2.3
2015-Feb-25 23:33N 35°13' E 139°45'1 1.3
2015-Feb-25 22:33N 35°12' E 139°46'1 1.5
2015-Feb-25 21:33N 35°13' E 139°45'1 1.4
2015-Feb-25 20:33N 35°13' E 139°43'0 0.0
2015-Feb-25 11:07N 35°13' E 139°43'610.0
2015-Feb-25 10:33N 35°10' E 139°49'3 3.3
2015-Feb-25 09:33N 35°12' E 139°45'1 1.4
2015-Feb-25 08:33N 35°11' E 139°47'2 2.4
2015-Feb-25 07:33N 35°13' E 139°45'2 2.3
2015-Feb-25 06:33N 35°12' E 139°47'2 2.2
2015-Feb-25 05:33N 35°10' E 139°49'6 5.9
2015-Feb-25 04:33N 35°13' E 139°43'0 0.2
2015-Feb-25 03:34N 35°13' E 139°43'6 5.9
2015-Feb-25 02:33N 35°10' E 139°49'4 4.4
2015-Feb-25 01:33N 35°13' E 139°45'2 2.5
2015-Feb-25 00:33N 35°11' E 139°47'2 2.3
2015-Feb-24 23:33N 35°13' E 139°45'2 1.9
2015-Feb-24 22:33N 35°11' E 139°46'2 1.9
2015-Feb-24 21:33N 35°13' E 139°45'2 0.2
2015-Feb-24 11:15N 35°13' E 139°43'6 8.1
2015-Feb-24 10:33N 35°10' E 139°49'4 3.6
2015-Feb-24 09:33N 35°13' E 139°46'2 1.6
2015-Feb-24 08:33N 35°12' E 139°47'3 2.6
2015-Feb-24 07:32N 35°13' E 139°44'3 3.0
2015-Feb-24 06:33N 35°11' E 139°47'2 1.9
2015-Feb-24 05:33N 35°10' E 139°49'6 5.9
2015-Feb-24 04:33N 35°13' E 139°43'1 0.9
2015-Feb-24 03:31N 35°13' E 139°44'5 5.3
2015-Feb-24 02:33N 35°10' E 139°49'4 4.4
2015-Feb-24 01:32N 35°13' E 139°44'3 2.8
2015-Feb-24 00:31N 35°11' E 139°47'3 2.6
2015-Feb-23 23:33N 35°13' E 139°45'1 1.1
2015-Feb-23 22:33N 35°12' E 139°46'1 1.4
2015-Feb-23 21:32N 35°13' E 139°44'1 0.1
2015-Feb-23 11:08N 35°13' E 139°43'6 9.6
2015-Feb-23 10:31N 35°10' E 139°49'3 3.3
2015-Feb-23 09:33N 35°12' E 139°46'1 1.2
2015-Feb-23 08:32N 35°12' E 139°47'4 3.4
2015-Feb-23 07:26N 35°13' E 139°43'4 4.2
2015-Feb-23 06:33N 35°12' E 139°47'2 2.1
2015-Feb-23 05:32N 35°10' E 139°49'6 6.0
2015-Feb-23 04:33N 35°13' E 139°43'0 0.3
2015-Feb-23 03:33N 35°13' E 139°43'6 5.7
2015-Feb-23 02:33N 35°10' E 139°49'5 4.6
2015-Feb-23 01:31N 35°13' E 139°44'3 2.8
2015-Feb-23 00:33N 35°11' E 139°47'3 2.7
2015-Feb-22 23:32N 35°13' E 139°44'1 1.2
2015-Feb-22 22:33N 35°13' E 139°43'0 0.0
2015-Feb-22 21:33N 35°13' E 139°43'0 0.0
2015-Feb-22 20:33N 35°13' E 139°43'0 0.0
2015-Feb-22 11:07N 35°13' E 139°43'610.0
2015-Feb-22 10:32N 35°10' E 139°49'4 3.6
2015-Feb-22 09:33N 35°13' E 139°46'1 1.4
2015-Feb-22 08:33N 35°11' E 139°47'3 2.6
2015-Feb-22 07:30N 35°13' E 139°44'3 3.0
2015-Feb-22 06:33N 35°11' E 139°47'3 2.5
2015-Feb-22 05:33N 35°13' E 139°44'2 1.7
2015-Feb-22 04:34N 35°12' E 139°46'1 0.8
2015-Feb-22 03:33N 35°12' E 139°45'2 1.8
2015-Feb-22 02:33N 35°11' E 139°47'3 2.8
2015-Feb-22 01:32N 35°13' E 139°44'3 2.9
2015-Feb-22 00:33N 35°11' E 139°47'3 2.8
2015-Feb-21 23:33N 35°13' E 139°44'2 1.5
2015-Feb-21 22:33N 35°12' E 139°46'2 1.6
2015-Feb-21 21:31N 35°13' E 139°44'1 1.1
2015-Feb-21 20:33N 35°13' E 139°43'0 0.0
2015-Feb-21 11:12N 35°13' E 139°43'6 9.0
2015-Feb-21 10:33N 35°10' E 139°49'4 3.6
2015-Feb-21 09:31N 35°12' E 139°45'2 2.1
2015-Feb-21 08:33N 35°11' E 139°47'3 2.9
2015-Feb-21 07:32N 35°13' E 139°44'3 2.9
2015-Feb-21 06:32N 35°11' E 139°47'3 2.9
2015-Feb-21 05:31N 35°13' E 139°44'2 1.9
2015-Feb-21 04:33N 35°12' E 139°46'0 0.5
2015-Feb-21 03:33N 35°12' E 139°46'1 1.4
2015-Feb-21 02:33N 35°11' E 139°47'3 2.5
2015-Feb-21 01:33N 35°13' E 139°44'3 2.6
2015-Feb-21 00:33N 35°11' E 139°47'2 2.3
2015-Feb-20 23:33N 35°13' E 139°45'1 1.5
2015-Feb-20 22:33N 35°12' E 139°46'2 1.6
2015-Feb-20 21:33N 35°13' E 139°45'1 0.1
2015-Feb-20 11:08N 35°13' E 139°43'6 9.8
2015-Feb-20 10:33N 35°10' E 139°49'3 2.8
2015-Feb-20 09:33N 35°12' E 139°46'1 0.9
2015-Feb-20 08:33N 35°12' E 139°47'2 2.3
2015-Feb-20 07:33N 35°13' E 139°45'2 2.3
2015-Feb-20 06:33N 35°12' E 139°47'2 2.0
2015-Feb-20 05:33N 35°10' E 139°49'6 5.9
2015-Feb-20 04:33N 35°13' E 139°43'0 0.3
2015-Feb-20 03:33N 35°13' E 139°43'6 5.8
2015-Feb-20 02:33N 35°10' E 139°49'4 4.2
2015-Feb-20 01:33N 35°13' E 139°45'2 2.0
2015-Feb-20 00:33N 35°12' E 139°47'2 2.1
2015-Feb-19 23:33N 35°13' E 139°45'1 1.1
2015-Feb-19 22:33N 35°12' E 139°46'1 1.0
2015-Feb-19 21:33N 35°12' E 139°45'2 0.2
2015-Feb-19 11:09N 35°13' E 139°43'6 9.6
2015-Feb-19 10:33N 35°10' E 139°49'3 3.3
2015-Feb-19 09:33N 35°13' E 139°46'1 1.5
2015-Feb-19 08:33N 35°12' E 139°47'2 2.0
2015-Feb-19 07:33N 35°12' E 139°45'2 1.7
2015-Feb-19 06:33N 35°12' E 139°47'2 2.3
2015-Feb-19 05:33N 35°10' E 139°49'6 5.9
2015-Feb-19 04:33N 35°13' E 139°43'0 0.3
2015-Feb-19 03:33N 35°13' E 139°43'6 5.8
2015-Feb-19 02:33N 35°10' E 139°49'5 4.5
2015-Feb-19 01:33N 35°13' E 139°45'3 2.6
2015-Feb-19 00:32N 35°11' E 139°47'3 2.7
2015-Feb-18 23:33N 35°13' E 139°45'1 1.5
2015-Feb-18 22:33N 35°12' E 139°46'1 1.4
2015-Feb-18 21:33N 35°13' E 139°45'1 1.4
2015-Feb-18 20:33N 35°13' E 139°43'0 0.0
2015-Feb-18 11:09N 35°13' E 139°43'  

Dump ship's entire track history